sensor_id;sensor_type;location;lat;lon;timestamp;temperature;humidity
20370;DHT22;10344;47.592;9.600;2022-07-22T00:02:04;19.30;99.90
20370;DHT22;10344;47.592;9.600;2022-07-22T00:04:30;19.30;99.90
20370;DHT22;10344;47.592;9.600;2022-07-22T00:06:55;19.30;99.90
20370;DHT22;10344;47.592;9.600;2022-07-22T00:09:21;19.20;99.90
20370;DHT22;10344;47.592;9.600;2022-07-22T00:11:46;19.20;99.90
20370;DHT22;10344;47.592;9.600;2022-07-22T00:14:12;19.20;99.90
20370;DHT22;10344;47.592;9.600;2022-07-22T00:16:38;19.20;99.90
20370;DHT22;10344;47.592;9.600;2022-07-22T00:19:04;19.10;99.90
20370;DHT22;10344;47.592;9.600;2022-07-22T00:21:29;19.10;99.90
20370;DHT22;10344;47.592;9.600;2022-07-22T00:23:55;19.10;99.90
20370;DHT22;10344;47.592;9.600;2022-07-22T00:26:20;19.00;99.90
20370;DHT22;10344;47.592;9.600;2022-07-22T00:28:46;19.00;99.90
20370;DHT22;10344;47.592;9.600;2022-07-22T00:31:11;19.10;99.90
20370;DHT22;10344;47.592;9.600;2022-07-22T00:33:37;19.00;99.90
20370;DHT22;10344;47.592;9.600;2022-07-22T00:36:02;19.00;99.90
20370;DHT22;10344;47.592;9.600;2022-07-22T00:38:28;19.00;99.90
20370;DHT22;10344;47.592;9.600;2022-07-22T00:40:54;19.00;99.90
20370;DHT22;10344;47.592;9.600;2022-07-22T00:43:19;19.00;99.90
20370;DHT22;10344;47.592;9.600;2022-07-22T00:45:45;18.90;99.90
20370;DHT22;10344;47.592;9.600;2022-07-22T00:48:10;18.90;99.90
20370;DHT22;10344;47.592;9.600;2022-07-22T00:50:36;18.90;99.90
20370;DHT22;10344;47.592;9.600;2022-07-22T00:53:01;18.80;99.90
20370;DHT22;10344;47.592;9.600;2022-07-22T00:55:29;18.90;99.90
20370;DHT22;10344;47.592;9.600;2022-07-22T00:57:55;18.80;99.90
20370;DHT22;10344;47.592;9.600;2022-07-22T01:00:21;18.80;99.90
20370;DHT22;10344;47.592;9.600;2022-07-22T01:02:48;18.80;99.90
20370;DHT22;10344;47.592;9.600;2022-07-22T01:05:13;18.70;99.90
20370;DHT22;10344;47.592;9.600;2022-07-22T01:07:39;18.70;99.90
20370;DHT22;10344;47.592;9.600;2022-07-22T01:10:05;18.70;99.90
20370;DHT22;10344;47.592;9.600;2022-07-22T01:12:31;18.60;99.90
20370;DHT22;10344;47.592;9.600;2022-07-22T01:14:57;18.60;99.90
20370;DHT22;10344;47.592;9.600;2022-07-22T01:17:22;18.70;99.90
20370;DHT22;10344;47.592;9.600;2022-07-22T01:19:50;18.70;99.90
20370;DHT22;10344;47.592;9.600;2022-07-22T01:22:18;18.70;99.90
20370;DHT22;10344;47.592;9.600;2022-07-22T01:24:43;18.60;99.90
20370;DHT22;10344;47.592;9.600;2022-07-22T01:27:09;18.60;99.90
20370;DHT22;10344;47.592;9.600;2022-07-22T01:29:34;18.70;99.90
20370;DHT22;10344;47.592;9.600;2022-07-22T01:32:00;18.60;99.90
20370;DHT22;10344;47.592;9.600;2022-07-22T01:34:25;18.60;99.90
20370;DHT22;10344;47.592;9.600;2022-07-22T01:36:53;18.60;99.90
20370;DHT22;10344;47.592;9.600;2022-07-22T01:39:19;18.60;99.90
20370;DHT22;10344;47.592;9.600;2022-07-22T01:41:44;18.60;99.90
20370;DHT22;10344;47.592;9.600;2022-07-22T01:44:10;18.60;99.90
20370;DHT22;10344;47.592;9.600;2022-07-22T01:46:35;18.70;99.90
20370;DHT22;10344;47.592;9.600;2022-07-22T01:49:01;18.60;99.90
20370;DHT22;10344;47.592;9.600;2022-07-22T01:51:26;18.60;99.90
20370;DHT22;10344;47.592;9.600;2022-07-22T01:53:54;18.60;99.90
20370;DHT22;10344;47.592;9.600;2022-07-22T01:56:20;18.60;99.90
20370;DHT22;10344;47.592;9.600;2022-07-22T01:58:45;18.60;99.90
20370;DHT22;10344;47.592;9.600;2022-07-22T02:01:11;18.60;99.90
20370;DHT22;10344;47.592;9.600;2022-07-22T02:03:36;18.60;99.90
20370;DHT22;10344;47.592;9.600;2022-07-22T02:06:02;18.50;99.90
20370;DHT22;10344;47.592;9.600;2022-07-22T02:08:28;18.50;99.90
20370;DHT22;10344;47.592;9.600;2022-07-22T02:10:54;18.50;99.90
20370;DHT22;10344;47.592;9.600;2022-07-22T02:13:19;18.40;99.90
20370;DHT22;10344;47.592;9.600;2022-07-22T02:15:45;18.40;99.90
20370;DHT22;10344;47.592;9.600;2022-07-22T02:18:13;18.40;99.90
20370;DHT22;10344;47.592;9.600;2022-07-22T02:20:39;18.30;99.90
20370;DHT22;10344;47.592;9.600;2022-07-22T02:23:05;18.30;99.90
20370;DHT22;10344;47.592;9.600;2022-07-22T02:25:33;18.30;99.90
20370;DHT22;10344;47.592;9.600;2022-07-22T02:28:01;18.30;99.90
20370;DHT22;10344;47.592;9.600;2022-07-22T02:30:27;18.20;99.90
20370;DHT22;10344;47.592;9.600;2022-07-22T02:32:52;18.20;99.90
20370;DHT22;10344;47.592;9.600;2022-07-22T02:35:20;18.10;99.90
20370;DHT22;10344;47.592;9.600;2022-07-22T02:37:45;18.10;99.90
20370;DHT22;10344;47.592;9.600;2022-07-22T02:40:11;18.10;99.90
20370;DHT22;10344;47.592;9.600;2022-07-22T02:42:36;18.00;99.90
20370;DHT22;10344;47.592;9.600;2022-07-22T02:45:02;18.00;99.90
20370;DHT22;10344;47.592;9.600;2022-07-22T02:47:30;18.10;99.90
20370;DHT22;10344;47.592;9.600;2022-07-22T02:49:56;18.10;99.90
20370;DHT22;10344;47.592;9.600;2022-07-22T02:52:22;18.00;99.90
20370;DHT22;10344;47.592;9.600;2022-07-22T02:54:47;17.90;99.90
20370;DHT22;10344;47.592;9.600;2022-07-22T02:57:13;17.90;99.90
20370;DHT22;10344;47.592;9.600;2022-07-22T02:59:38;17.90;99.90
20370;DHT22;10344;47.592;9.600;2022-07-22T03:02:04;17.90;99.90
20370;DHT22;10344;47.592;9.600;2022-07-22T03:04:29;17.80;99.90
20370;DHT22;10344;47.592;9.600;2022-07-22T03:06:55;17.80;99.90
20370;DHT22;10344;47.592;9.600;2022-07-22T03:09:20;17.70;99.90
20370;DHT22;10344;47.592;9.600;2022-07-22T03:11:46;17.70;99.90
20370;DHT22;10344;47.592;9.600;2022-07-22T03:14:11;17.70;99.90
20370;DHT22;10344;47.592;9.600;2022-07-22T03:16:37;17.80;99.90
20370;DHT22;10344;47.592;9.600;2022-07-22T03:19:03;17.80;99.90
20370;DHT22;10344;47.592;9.600;2022-07-22T03:21:28;17.80;99.90
20370;DHT22;10344;47.592;9.600;2022-07-22T03:23:54;17.80;99.90
20370;DHT22;10344;47.592;9.600;2022-07-22T03:26:20;17.90;99.90
20370;DHT22;10344;47.592;9.600;2022-07-22T03:28:46;17.80;99.90
20370;DHT22;10344;47.592;9.600;2022-07-22T03:31:12;17.80;99.90
20370;DHT22;10344;47.592;9.600;2022-07-22T03:33:37;17.90;99.90
20370;DHT22;10344;47.592;9.600;2022-07-22T03:36:05;17.90;99.90
20370;DHT22;10344;47.592;9.600;2022-07-22T03:38:31;17.90;99.90
20370;DHT22;10344;47.592;9.600;2022-07-22T03:41:00;17.90;99.90
20370;DHT22;10344;47.592;9.600;2022-07-22T03:43:26;17.90;99.90
20370;DHT22;10344;47.592;9.600;2022-07-22T03:45:52;17.80;99.90
20370;DHT22;10344;47.592;9.600;2022-07-22T03:48:17;17.90;99.90
20370;DHT22;10344;47.592;9.600;2022-07-22T03:50:43;17.90;99.90
20370;DHT22;10344;47.592;9.600;2022-07-22T03:53:08;17.90;99.90
20370;DHT22;10344;47.592;9.600;2022-07-22T03:55:34;17.90;99.90
20370;DHT22;10344;47.592;9.600;2022-07-22T03:58:02;17.90;99.90
20370;DHT22;10344;47.592;9.600;2022-07-22T04:00:28;17.90;99.90
20370;DHT22;10344;47.592;9.600;2022-07-22T04:02:53;17.80;99.90
20370;DHT22;10344;47.592;9.600;2022-07-22T04:05:19;17.70;99.90
20370;DHT22;10344;47.592;9.600;2022-07-22T04:07:44;17.70;99.90
20370;DHT22;10344;47.592;9.600;2022-07-22T04:10:10;17.70;99.90
20370;DHT22;10344;47.592;9.600;2022-07-22T04:12:36;17.70;99.90
20370;DHT22;10344;47.592;9.600;2022-07-22T04:15:05;17.70;99.90
20370;DHT22;10344;47.592;9.600;2022-07-22T04:17:34;17.60;99.90
20370;DHT22;10344;47.592;9.600;2022-07-22T04:20:00;17.60;99.90
20370;DHT22;10344;47.592;9.600;2022-07-22T04:22:26;17.60;99.90
20370;DHT22;10344;47.592;9.600;2022-07-22T04:24:52;17.60;99.90
20370;DHT22;10344;47.592;9.600;2022-07-22T04:27:20;17.60;99.90
20370;DHT22;10344;47.592;9.600;2022-07-22T04:29:45;17.60;99.90
20370;DHT22;10344;47.592;9.600;2022-07-22T04:32:13;17.60;99.90
20370;DHT22;10344;47.592;9.600;2022-07-22T04:34:38;17.60;99.90
20370;DHT22;10344;47.592;9.600;2022-07-22T04:37:04;17.60;99.90
20370;DHT22;10344;47.592;9.600;2022-07-22T04:39:29;17.70;99.90
20370;DHT22;10344;47.592;9.600;2022-07-22T04:41:55;17.70;99.90
20370;DHT22;10344;47.592;9.600;2022-07-22T04:44:20;17.70;99.90
20370;DHT22;10344;47.592;9.600;2022-07-22T04:46:46;17.70;99.90
20370;DHT22;10344;47.592;9.600;2022-07-22T04:49:11;17.80;99.90
20370;DHT22;10344;47.592;9.600;2022-07-22T04:51:37;17.80;99.90
20370;DHT22;10344;47.592;9.600;2022-07-22T04:54:02;17.90;99.90
20370;DHT22;10344;47.592;9.600;2022-07-22T04:56:28;17.90;99.90
20370;DHT22;10344;47.592;9.600;2022-07-22T04:58:53;18.00;99.90
20370;DHT22;10344;47.592;9.600;2022-07-22T05:01:19;18.00;99.90
20370;DHT22;10344;47.592;9.600;2022-07-22T05:03:44;18.10;99.90
20370;DHT22;10344;47.592;9.600;2022-07-22T05:06:10;18.20;99.90
20370;DHT22;10344;47.592;9.600;2022-07-22T05:08:35;18.20;99.90
20370;DHT22;10344;47.592;9.600;2022-07-22T05:11:03;18.30;99.90
20370;DHT22;10344;47.592;9.600;2022-07-22T05:13:29;18.40;99.90
20370;DHT22;10344;47.592;9.600;2022-07-22T05:15:54;18.40;99.90
20370;DHT22;10344;47.592;9.600;2022-07-22T05:18:20;18.50;99.90
20370;DHT22;10344;47.592;9.600;2022-07-22T05:20:45;18.50;99.90
20370;DHT22;10344;47.592;9.600;2022-07-22T05:23:11;18.60;99.90
20370;DHT22;10344;47.592;9.600;2022-07-22T05:25:36;18.70;99.90
20370;DHT22;10344;47.592;9.600;2022-07-22T05:28:02;18.70;99.90
20370;DHT22;10344;47.592;9.600;2022-07-22T05:30:28;18.80;99.90
20370;DHT22;10344;47.592;9.600;2022-07-22T05:32:53;18.90;99.90
20370;DHT22;10344;47.592;9.600;2022-07-22T05:35:19;18.90;99.90
20370;DHT22;10344;47.592;9.600;2022-07-22T05:37:45;19.00;99.90
20370;DHT22;10344;47.592;9.600;2022-07-22T05:40:10;19.10;99.90
20370;DHT22;10344;47.592;9.600;2022-07-22T05:42:38;19.10;99.90
20370;DHT22;10344;47.592;9.600;2022-07-22T05:45:04;19.20;99.90
20370;DHT22;10344;47.592;9.600;2022-07-22T05:47:30;19.20;99.90
20370;DHT22;10344;47.592;9.600;2022-07-22T05:49:55;19.30;99.90
20370;DHT22;10344;47.592;9.600;2022-07-22T05:52:21;19.40;99.90
20370;DHT22;10344;47.592;9.600;2022-07-22T05:54:47;19.50;99.90
20370;DHT22;10344;47.592;9.600;2022-07-22T05:57:12;19.60;99.90
20370;DHT22;10344;47.592;9.600;2022-07-22T05:59:38;19.70;99.90
20370;DHT22;10344;47.592;9.600;2022-07-22T06:02:04;19.80;99.90
20370;DHT22;10344;47.592;9.600;2022-07-22T06:04:29;19.90;99.90
20370;DHT22;10344;47.592;9.600;2022-07-22T06:06:55;20.00;99.90
20370;DHT22;10344;47.592;9.600;2022-07-22T06:09:20;20.10;99.90
20370;DHT22;10344;47.592;9.600;2022-07-22T06:11:46;20.20;99.90
20370;DHT22;10344;47.592;9.600;2022-07-22T06:14:11;20.30;99.90
20370;DHT22;10344;47.592;9.600;2022-07-22T06:16:37;20.40;99.90
20370;DHT22;10344;47.592;9.600;2022-07-22T06:19:03;20.50;99.90
20370;DHT22;10344;47.592;9.600;2022-07-22T06:21:28;20.60;99.90
20370;DHT22;10344;47.592;9.600;2022-07-22T06:23:54;20.60;99.90
20370;DHT22;10344;47.592;9.600;2022-07-22T06:26:20;20.80;99.90
20370;DHT22;10344;47.592;9.600;2022-07-22T06:28:46;20.80;99.90
20370;DHT22;10344;47.592;9.600;2022-07-22T06:31:12;21.00;99.90
20370;DHT22;10344;47.592;9.600;2022-07-22T06:33:37;21.10;99.90
20370;DHT22;10344;47.592;9.600;2022-07-22T06:36:03;21.20;99.90
20370;DHT22;10344;47.592;9.600;2022-07-22T06:38:30;21.30;99.90
20370;DHT22;10344;47.592;9.600;2022-07-22T06:40:58;21.30;99.90
20370;DHT22;10344;47.592;9.600;2022-07-22T06:43:23;21.40;99.90
20370;DHT22;10344;47.592;9.600;2022-07-22T06:45:49;21.60;99.90
20370;DHT22;10344;47.592;9.600;2022-07-22T06:48:16;21.70;99.90
20370;DHT22;10344;47.592;9.600;2022-07-22T06:50:44;21.70;99.90
20370;DHT22;10344;47.592;9.600;2022-07-22T06:53:11;21.80;99.90
20370;DHT22;10344;47.592;9.600;2022-07-22T06:55:37;22.10;99.90
20370;DHT22;10344;47.592;9.600;2022-07-22T06:58:02;22.60;99.90
20370;DHT22;10344;47.592;9.600;2022-07-22T07:00:28;23.50;99.90
20370;DHT22;10344;47.592;9.600;2022-07-22T07:02:58;24.80;99.90
20370;DHT22;10344;47.592;9.600;2022-07-22T07:05:24;26.20;99.90
20370;DHT22;10344;47.592;9.600;2022-07-22T07:07:50;27.40;99.90
20370;DHT22;10344;47.592;9.600;2022-07-22T07:10:16;28.20;99.90
20370;DHT22;10344;47.592;9.600;2022-07-22T07:12:41;28.70;99.90
20370;DHT22;10344;47.592;9.600;2022-07-22T07:15:07;29.40;99.90
20370;DHT22;10344;47.592;9.600;2022-07-22T07:17:33;29.10;99.90
20370;DHT22;10344;47.592;9.600;2022-07-22T07:19:59;29.40;99.90
20370;DHT22;10344;47.592;9.600;2022-07-22T07:22:27;30.10;99.90
20370;DHT22;10344;47.592;9.600;2022-07-22T07:24:52;30.70;99.90
20370;DHT22;10344;47.592;9.600;2022-07-22T07:27:18;30.90;99.90
20370;DHT22;10344;47.592;9.600;2022-07-22T07:29:44;30.80;99.90
20370;DHT22;10344;47.592;9.600;2022-07-22T07:32:11;30.70;99.90
20370;DHT22;10344;47.592;9.600;2022-07-22T07:34:36;31.00;99.90
20370;DHT22;10344;47.592;9.600;2022-07-22T07:37:02;30.80;99.90
20370;DHT22;10344;47.592;9.600;2022-07-22T07:39:30;30.70;99.90
20370;DHT22;10344;47.592;9.600;2022-07-22T07:41:56;30.50;99.90
20370;DHT22;10344;47.592;9.600;2022-07-22T07:44:21;30.90;99.90
20370;DHT22;10344;47.592;9.600;2022-07-22T07:46:47;30.90;99.90
20370;DHT22;10344;47.592;9.600;2022-07-22T07:49:12;31.30;99.90
20370;DHT22;10344;47.592;9.600;2022-07-22T07:51:38;31.60;99.90
20370;DHT22;10344;47.592;9.600;2022-07-22T07:54:03;31.90;99.90
20370;DHT22;10344;47.592;9.600;2022-07-22T07:56:32;32.60;99.90
20370;DHT22;10344;47.592;9.600;2022-07-22T07:58:57;33.20;99.90
20370;DHT22;10344;47.592;9.600;2022-07-22T08:01:23;33.40;99.90
20370;DHT22;10344;47.592;9.600;2022-07-22T08:03:48;32.90;99.90
20370;DHT22;10344;47.592;9.600;2022-07-22T08:06:14;32.40;99.90
20370;DHT22;10344;47.592;9.600;2022-07-22T08:08:39;31.90;99.90
20370;DHT22;10344;47.592;9.600;2022-07-22T08:11:10;32.20;99.90
20370;DHT22;10344;47.592;9.600;2022-07-22T08:13:35;32.60;99.90
20370;DHT22;10344;47.592;9.600;2022-07-22T08:16:01;32.80;99.90
20370;DHT22;10344;47.592;9.600;2022-07-22T08:18:27;32.90;99.90
20370;DHT22;10344;47.592;9.600;2022-07-22T08:20:52;32.70;99.90
20370;DHT22;10344;47.592;9.600;2022-07-22T08:23:18;32.80;99.90
20370;DHT22;10344;47.592;9.600;2022-07-22T08:25:44;32.50;99.90
20370;DHT22;10344;47.592;9.600;2022-07-22T08:28:12;32.10;99.90
20370;DHT22;10344;47.592;9.600;2022-07-22T08:30:40;31.40;99.90
20370;DHT22;10344;47.592;9.600;2022-07-22T08:33:07;31.30;99.90
20370;DHT22;10344;47.592;9.600;2022-07-22T08:35:33;31.30;99.90
20370;DHT22;10344;47.592;9.600;2022-07-22T08:37:58;30.70;99.90
20370;DHT22;10344;47.592;9.600;2022-07-22T08:40:27;30.80;99.90
20370;DHT22;10344;47.592;9.600;2022-07-22T08:43:24;30.90;99.90
20370;DHT22;10344;47.592;9.600;2022-07-22T08:45:50;31.20;99.90
20370;DHT22;10344;47.592;9.600;2022-07-22T08:48:15;30.90;99.90
20370;DHT22;10344;47.592;9.600;2022-07-22T08:50:42;30.90;99.90
20370;DHT22;10344;47.592;9.600;2022-07-22T08:53:11;31.10;99.90
20370;DHT22;10344;47.592;9.600;2022-07-22T08:55:43;31.10;99.90
20370;DHT22;10344;47.592;9.600;2022-07-22T08:58:10;30.90;99.90
20370;DHT22;10344;47.592;9.600;2022-07-22T09:00:37;31.30;99.90
20370;DHT22;10344;47.592;9.600;2022-07-22T09:03:24;30.90;99.90
20370;DHT22;10344;47.592;9.600;2022-07-22T09:05:49;31.10;99.90
20370;DHT22;10344;47.592;9.600;2022-07-22T09:08:15;30.80;99.90
20370;DHT22;10344;47.592;9.600;2022-07-22T09:10:41;30.60;99.90
20370;DHT22;10344;47.592;9.600;2022-07-22T09:13:07;30.60;99.90
20370;DHT22;10344;47.592;9.600;2022-07-22T09:15:36;31.10;99.90
20370;DHT22;10344;47.592;9.600;2022-07-22T09:18:05;31.80;99.90
20370;DHT22;10344;47.592;9.600;2022-07-22T09:20:32;32.10;99.90
20370;DHT22;10344;47.592;9.600;2022-07-22T09:22:58;31.60;99.90
20370;DHT22;10344;47.592;9.600;2022-07-22T09:28:11;31.00;99.90
20370;DHT22;10344;47.592;9.600;2022-07-22T09:30:39;30.90;99.90
20370;DHT22;10344;47.592;9.600;2022-07-22T09:33:06;31.40;99.90
20370;DHT22;10344;47.592;9.600;2022-07-22T09:35:33;31.20;99.90
20370;DHT22;10344;47.592;9.600;2022-07-22T09:38:10;31.50;99.90
20370;DHT22;10344;47.592;9.600;2022-07-22T09:40:36;31.50;99.90
20370;DHT22;10344;47.592;9.600;2022-07-22T09:43:19;31.30;99.90
20370;DHT22;10344;47.592;9.600;2022-07-22T09:45:55;31.70;99.90
20370;DHT22;10344;47.592;9.600;2022-07-22T09:48:22;31.90;99.90
20370;DHT22;10344;47.592;9.600;2022-07-22T09:50:48;32.40;99.90
20370;DHT22;10344;47.592;9.600;2022-07-22T09:53:17;32.30;99.90
20370;DHT22;10344;47.592;9.600;2022-07-22T09:55:47;31.60;99.90
20370;DHT22;10344;47.592;9.600;2022-07-22T09:58:13;31.00;99.90
20370;DHT22;10344;47.592;9.600;2022-07-22T10:00:39;30.80;99.90
20370;DHT22;10344;47.592;9.600;2022-07-22T10:03:05;30.20;99.90
20370;DHT22;10344;47.592;9.600;2022-07-22T10:05:32;29.90;99.90
20370;DHT22;10344;47.592;9.600;2022-07-22T10:07:59;29.30;99.90
20370;DHT22;10344;47.592;9.600;2022-07-22T10:10:26;29.30;99.90
20370;DHT22;10344;47.592;9.600;2022-07-22T10:12:53;29.50;99.90
20370;DHT22;10344;47.592;9.600;2022-07-22T10:15:19;29.50;99.90
20370;DHT22;10344;47.592;9.600;2022-07-22T10:17:46;29.50;99.90
20370;DHT22;10344;47.592;9.600;2022-07-22T10:20:13;29.20;99.90
20370;DHT22;10344;47.592;9.600;2022-07-22T10:25:07;29.30;99.90
20370;DHT22;10344;47.592;9.600;2022-07-22T10:30:12;30.50;99.90
20370;DHT22;10344;47.592;9.600;2022-07-22T10:32:37;30.70;99.90
20370;DHT22;10344;47.592;9.600;2022-07-22T10:37:38;29.70;99.90
20370;DHT22;10344;47.592;9.600;2022-07-22T10:40:23;29.50;99.90
20370;DHT22;10344;47.592;9.600;2022-07-22T10:48:11;29.60;99.90
20370;DHT22;10344;47.592;9.600;2022-07-22T10:53:46;29.80;99.90
20370;DHT22;10344;47.592;9.600;2022-07-22T10:58:52;30.30;99.90
20370;DHT22;10344;47.592;9.600;2022-07-22T11:01:20;30.40;99.90
20370;DHT22;10344;47.592;9.600;2022-07-22T11:03:48;30.40;99.90
20370;DHT22;10344;47.592;9.600;2022-07-22T11:08:40;30.00;99.90
20370;DHT22;10344;47.592;9.600;2022-07-22T11:11:06;30.00;99.90
20370;DHT22;10344;47.592;9.600;2022-07-22T11:13:35;30.10;99.90
20370;DHT22;10344;47.592;9.600;2022-07-22T11:16:20;30.70;99.90
20370;DHT22;10344;47.592;9.600;2022-07-22T11:18:47;31.20;99.90
20370;DHT22;10344;47.592;9.600;2022-07-22T11:21:14;31.90;99.90
20370;DHT22;10344;47.592;9.600;2022-07-22T11:23:40;32.60;99.90
20370;DHT22;10344;47.592;9.600;2022-07-22T11:26:06;33.30;99.90
20370;DHT22;10344;47.592;9.600;2022-07-22T11:28:38;33.40;99.90
20370;DHT22;10344;47.592;9.600;2022-07-22T11:31:04;33.70;99.90
20370;DHT22;10344;47.592;9.600;2022-07-22T11:33:30;33.90;99.90
20370;DHT22;10344;47.592;9.600;2022-07-22T11:36:08;34.30;99.90
20370;DHT22;10344;47.592;9.600;2022-07-22T11:38:44;34.20;99.90
20370;DHT22;10344;47.592;9.600;2022-07-22T11:41:09;34.30;99.90
20370;DHT22;10344;47.592;9.600;2022-07-22T11:43:42;34.50;99.90
20370;DHT22;10344;47.592;9.600;2022-07-22T11:46:08;34.70;99.90
20370;DHT22;10344;47.592;9.600;2022-07-22T11:48:34;34.90;99.90
20370;DHT22;10344;47.592;9.600;2022-07-22T11:51:03;34.90;99.90
20370;DHT22;10344;47.592;9.600;2022-07-22T11:53:29;35.10;99.90
20370;DHT22;10344;47.592;9.600;2022-07-22T11:55:58;35.40;99.90
20370;DHT22;10344;47.592;9.600;2022-07-22T12:01:09;35.90;99.90
20370;DHT22;10344;47.592;9.600;2022-07-22T12:03:35;36.20;99.90
20370;DHT22;10344;47.592;9.600;2022-07-22T12:06:02;36.20;99.90
20370;DHT22;10344;47.592;9.600;2022-07-22T12:08:30;36.20;99.90
20370;DHT22;10344;47.592;9.600;2022-07-22T12:10:57;36.10;99.90
20370;DHT22;10344;47.592;9.600;2022-07-22T12:13:28;36.10;99.90
20370;DHT22;10344;47.592;9.600;2022-07-22T12:15:54;36.10;99.90
20370;DHT22;10344;47.592;9.600;2022-07-22T12:18:22;36.30;99.90
20370;DHT22;10344;47.592;9.600;2022-07-22T12:20:48;36.40;99.90
20370;DHT22;10344;47.592;9.600;2022-07-22T12:23:14;36.50;99.90
20370;DHT22;10344;47.592;9.600;2022-07-22T12:25:53;36.50;99.90
20370;DHT22;10344;47.592;9.600;2022-07-22T12:28:18;36.50;99.90
20370;DHT22;10344;47.592;9.600;2022-07-22T12:30:44;36.40;99.90
20370;DHT22;10344;47.592;9.600;2022-07-22T12:33:16;36.40;99.90
20370;DHT22;10344;47.592;9.600;2022-07-22T12:35:42;36.30;99.90
20370;DHT22;10344;47.592;9.600;2022-07-22T12:38:09;36.30;99.80
20370;DHT22;10344;47.592;9.600;2022-07-22T12:40:35;36.30;99.90
20370;DHT22;10344;47.592;9.600;2022-07-22T12:43:01;36.30;99.20
20370;DHT22;10344;47.592;9.600;2022-07-22T12:45:30;36.40;99.90
20370;DHT22;10344;47.592;9.600;2022-07-22T12:48:00;36.70;98.70
20370;DHT22;10344;47.592;9.600;2022-07-22T12:52:59;36.90;96.40
20370;DHT22;10344;47.592;9.600;2022-07-22T12:55:27;36.90;96.60
20370;DHT22;10344;47.592;9.600;2022-07-22T12:57:57;36.90;96.50
20370;DHT22;10344;47.592;9.600;2022-07-22T13:00:24;36.80;98.60
20370;DHT22;10344;47.592;9.600;2022-07-22T13:02:50;36.90;99.90
20370;DHT22;10344;47.592;9.600;2022-07-22T13:05:15;37.10;99.50
20370;DHT22;10344;47.592;9.600;2022-07-22T13:07:43;37.20;97.70
20370;DHT22;10344;47.592;9.600;2022-07-22T13:10:29;37.40;99.00
20370;DHT22;10344;47.592;9.600;2022-07-22T13:12:54;37.40;98.00
20370;DHT22;10344;47.592;9.600;2022-07-22T13:15:21;37.30;96.80
20370;DHT22;10344;47.592;9.600;2022-07-22T13:17:47;37.30;96.30
20370;DHT22;10344;47.592;9.600;2022-07-22T13:20:13;37.20;96.10
20370;DHT22;10344;47.592;9.600;2022-07-22T13:22:39;37.10;97.60
20370;DHT22;10344;47.592;9.600;2022-07-22T13:25:06;37.00;95.40
20370;DHT22;10344;47.592;9.600;2022-07-22T13:27:34;36.60;95.70
20370;DHT22;10344;47.592;9.600;2022-07-22T13:30:00;36.60;96.30
20370;DHT22;10344;47.592;9.600;2022-07-22T13:32:25;36.70;96.40
20370;DHT22;10344;47.592;9.600;2022-07-22T13:34:51;36.70;97.20
20370;DHT22;10344;47.592;9.600;2022-07-22T13:37:16;36.70;96.50
20370;DHT22;10344;47.592;9.600;2022-07-22T13:39:42;36.80;96.40
20370;DHT22;10344;47.592;9.600;2022-07-22T13:42:11;36.70;96.00
20370;DHT22;10344;47.592;9.600;2022-07-22T13:44:37;36.70;97.30
20370;DHT22;10344;47.592;9.600;2022-07-22T13:47:03;36.70;95.50
20370;DHT22;10344;47.592;9.600;2022-07-22T13:49:31;36.60;95.10
20370;DHT22;10344;47.592;9.600;2022-07-22T13:51:57;36.60;96.00
20370;DHT22;10344;47.592;9.600;2022-07-22T13:54:23;36.60;96.80
20370;DHT22;10344;47.592;9.600;2022-07-22T13:56:49;36.60;95.80
20370;DHT22;10344;47.592;9.600;2022-07-22T13:59:15;36.50;95.80
20370;DHT22;10344;47.592;9.600;2022-07-22T14:01:41;36.40;94.50
20370;DHT22;10344;47.592;9.600;2022-07-22T14:04:07;36.40;96.60
20370;DHT22;10344;47.592;9.600;2022-07-22T14:06:33;36.40;95.30
20370;DHT22;10344;47.592;9.600;2022-07-22T14:09:04;36.30;95.80
20370;DHT22;10344;47.592;9.600;2022-07-22T14:11:30;36.20;93.00
20370;DHT22;10344;47.592;9.600;2022-07-22T14:13:55;36.10;94.00
20370;DHT22;10344;47.592;9.600;2022-07-22T14:16:23;36.20;94.80
20370;DHT22;10344;47.592;9.600;2022-07-22T14:19:06;36.20;94.10
20370;DHT22;10344;47.592;9.600;2022-07-22T14:21:35;36.00;94.30
20370;DHT22;10344;47.592;9.600;2022-07-22T14:24:01;36.00;95.70
20370;DHT22;10344;47.592;9.600;2022-07-22T14:26:27;35.80;91.40
20370;DHT22;10344;47.592;9.600;2022-07-22T14:28:53;35.70;92.10
20370;DHT22;10344;47.592;9.600;2022-07-22T14:31:18;35.60;91.60
20370;DHT22;10344;47.592;9.600;2022-07-22T14:33:44;35.70;90.70
20370;DHT22;10344;47.592;9.600;2022-07-22T14:36:10;35.60;91.10
20370;DHT22;10344;47.592;9.600;2022-07-22T14:38:35;35.50;92.40
20370;DHT22;10344;47.592;9.600;2022-07-22T14:41:01;35.20;92.30
20370;DHT22;10344;47.592;9.600;2022-07-22T14:43:27;34.60;92.20
20370;DHT22;10344;47.592;9.600;2022-07-22T14:45:57;34.30;93.20
20370;DHT22;10344;47.592;9.600;2022-07-22T14:48:23;34.10;93.00
20370;DHT22;10344;47.592;9.600;2022-07-22T14:50:48;34.20;93.30
20370;DHT22;10344;47.592;9.600;2022-07-22T14:53:14;34.10;94.40
20370;DHT22;10344;47.592;9.600;2022-07-22T14:55:42;34.00;95.60
20370;DHT22;10344;47.592;9.600;2022-07-22T14:58:10;34.00;96.20
20370;DHT22;10344;47.592;9.600;2022-07-22T15:00:36;33.90;96.80
20370;DHT22;10344;47.592;9.600;2022-07-22T15:03:02;33.70;97.80
20370;DHT22;10344;47.592;9.600;2022-07-22T15:05:27;33.50;96.70
20370;DHT22;10344;47.592;9.600;2022-07-22T15:07:54;33.60;97.00
20370;DHT22;10344;47.592;9.600;2022-07-22T15:10:20;33.60;96.00
20370;DHT22;10344;47.592;9.600;2022-07-22T15:12:46;33.60;95.30
20370;DHT22;10344;47.592;9.600;2022-07-22T15:15:11;33.50;93.60
20370;DHT22;10344;47.592;9.600;2022-07-22T15:17:38;33.40;93.80
20370;DHT22;10344;47.592;9.600;2022-07-22T15:20:05;33.30;92.60
20370;DHT22;10344;47.592;9.600;2022-07-22T15:22:31;33.40;92.20
20370;DHT22;10344;47.592;9.600;2022-07-22T15:24:57;33.60;90.30
20370;DHT22;10344;47.592;9.600;2022-07-22T15:27:23;33.70;90.70
20370;DHT22;10344;47.592;9.600;2022-07-22T15:29:49;33.70;89.20
20370;DHT22;10344;47.592;9.600;2022-07-22T15:32:17;33.80;91.00
20370;DHT22;10344;47.592;9.600;2022-07-22T15:34:45;33.70;85.70
20370;DHT22;10344;47.592;9.600;2022-07-22T15:37:11;33.60;89.90
20370;DHT22;10344;47.592;9.600;2022-07-22T15:39:36;33.30;87.30
20370;DHT22;10344;47.592;9.600;2022-07-22T15:42:02;33.30;83.40
20370;DHT22;10344;47.592;9.600;2022-07-22T15:44:28;33.20;82.80
20370;DHT22;10344;47.592;9.600;2022-07-22T15:46:54;33.30;83.00
20370;DHT22;10344;47.592;9.600;2022-07-22T15:49:21;33.40;83.70
20370;DHT22;10344;47.592;9.600;2022-07-22T15:51:46;33.50;81.60
20370;DHT22;10344;47.592;9.600;2022-07-22T15:54:12;33.40;79.30
20370;DHT22;10344;47.592;9.600;2022-07-22T15:56:39;33.20;82.10